Lakki Marwat Weather



Lakki Marwat's Current Weather

Temprature 7.77o clear sky

clear sky

Rain: 0 %

Min Temprature7.77o
Max Temprature7.77o
Humidity47
Wind Speed0.34 m/h
Sun Rise07:17:41
Sun Set17:35:24
Current Time: 18-Jan-2021 05:33:16
Lat/Lon: 32.6079, 70.9114




Lakki Marwat's Geo Location



Lakki Marwat's Weather Forecast

Time Overall Temp Min Temp Max Temp Humidity Wind Speed Rain
18-Jan-2021 (Mon)
08:00:00 clear sky 8.440 8.440 8.900 46 0.57 m/h 0 %
11:00:00 clear sky 15.000 15.000 16.930 30 0.12 m/h 0 %
14:00:00 clear sky 18.910 18.910 19.660 24 0.77 m/h 0 %
17:00:00 clear sky 17.400 17.400 17.480 28 1.4 m/h 0 %
20:00:00 clear sky 11.980 11.980 11.980 42 1.06 m/h 0 %
23:00:00 clear sky 10.400 10.400 10.400 47 0.46 m/h 0 %
19-Jan-2021 (Tue)
02:00:00 clear sky 9.340 9.340 9.340 50 0.67 m/h 0 %
05:00:00 clear sky 8.450 8.450 8.450 54 0.53 m/h 0 %
08:00:00 clear sky 9.800 9.800 9.800 48 0.85 m/h 0 %
11:00:00 clear sky 18.610 18.610 18.610 26 0.65 m/h 0 %
14:00:00 clear sky 21.620 21.620 21.620 21 0.57 m/h 0 %
17:00:00 clear sky 19.040 19.040 19.040 26 1.63 m/h 0 %
20:00:00 clear sky 13.110 13.110 13.110 37 0.69 m/h 0 %
23:00:00 clear sky 12.300 12.300 12.300 38 1.23 m/h 0 %
20-Jan-2021 (Wed)
02:00:00 clear sky 10.710 10.710 10.710 42 0.99 m/h 0 %
05:00:00 clear sky 9.430 9.430 9.430 46 0.69 m/h 0 %
08:00:00 clear sky 10.730 10.730 10.730 42 0.51 m/h 0 %
11:00:00 clear sky 20.280 20.280 20.280 22 1.23 m/h 0 %
14:00:00 few clouds 23.110 23.110 23.110 19 0.6 m/h 0 %
17:00:00 few clouds 19.310 19.310 19.310 25 0.68 m/h 0 %
20:00:00 broken clouds 14.880 14.880 14.880 32 1.32 m/h 0 %
23:00:00 broken clouds 13.380 13.380 13.380 35 0.73 m/h 0 %
21-Jan-2021 (Thu)
02:00:00 scattered clouds 11.460 11.460 11.460 40 0.84 m/h 0 %
05:00:00 scattered clouds 10.310 10.310 10.310 44 0.35 m/h 0 %
08:00:00 clear sky 11.560 11.560 11.560 40 0.44 m/h 0 %
11:00:00 clear sky 20.800 20.800 20.800 22 0.57 m/h 0 %
14:00:00 few clouds 23.310 23.310 23.310 19 1.42 m/h 0 %
17:00:00 scattered clouds 20.820 20.820 20.820 23 1.93 m/h 0 %
20:00:00 scattered clouds 15.590 15.590 15.590 31 2.6 m/h 0 %
23:00:00 scattered clouds 13.180 13.180 13.180 37 1.17 m/h 0 %
22-Jan-2021 (Fri)
02:00:00 clear sky 11.830 11.830 11.830 40 1.31 m/h 0 %
05:00:00 clear sky 10.700 10.700 10.700 42 1.26 m/h 0 %
08:00:00 scattered clouds 11.890 11.890 11.890 40 1.49 m/h 0 %
11:00:00 broken clouds 18.700 18.700 18.700 24 1.28 m/h 0 %
14:00:00 scattered clouds 21.270 21.270 21.270 21 2.48 m/h 0 %
17:00:00 few clouds 19.070 19.070 19.070 26 2.54 m/h 0 %
20:00:00 clear sky 13.090 13.090 13.090 38 1.28 m/h 0 %
23:00:00 clear sky 11.740 11.740 11.740 41 1.6 m/h 0 %
23-Jan-2021 (Sat)
02:00:00 clear sky 11.150 11.150 11.150 41 2.61 m/h 0 %
05:00:00 clear sky 10.110 10.110 10.110 42 3 m/h 0 %

Famous Cities (60)